Time;durP1;ratioP1;P1;durP2;ratioP2;P2;SDS_P1;SDS_P2;PMS_P1;PMS_P2;Temp;Humidity;BMP_temperature;BMP_pressure;BME280_temperature;BME280_humidity;BME280_pressure;Samples;Min_cycle;Max_cycle;Signal;HPM_P1;HPM_P2
2023/05/10 00:01:12;;;;;;;346.00;81.33;;;;;;;;;;4984880;28;20165;-56
2023/05/10 00:03:38;;;;;;;352.30;82.40;;;;;;;;;;4985822;28;20329;-56
2023/05/10 00:06:03;;;;;;;353.65;83.03;;;;;;;;;;4985832;28;20046;-55
2023/05/10 00:08:28;;;;;;;327.83;81.97;;;;;;;;;;4983021;28;20053;-57
2023/05/10 00:10:53;;;;;;;341.07;81.70;;;;;;;;;;4984325;28;20045;-57
2023/05/10 00:13:18;;;;;;;381.00;81.97;;;;;;;;;;4987199;28;20877;-56
2023/05/10 00:15:44;;;;;;;339.63;80.47;;;;;;;;;;4983804;28;20834;-58
2023/05/10 00:18:09;;;;;;;364.33;82.05;;;;;;;;;;4983027;28;20292;-57
2023/05/10 00:20:34;;;;;;;346.47;79.97;;;;;;;;;;4985386;28;20042;-57
2023/05/10 00:22:59;;;;;;;335.80;79.77;;;;;;;;;;4983633;28;20261;-56
2023/05/10 00:25:25;;;;;;;379.43;81.43;;;;;;;;;;4982577;28;20293;-57
2023/05/10 00:27:50;;;;;;;332.02;80.40;;;;;;;;;;4983713;28;20274;-57
2023/05/10 00:30:15;;;;;;;314.33;80.07;;;;;;;;;;4986920;28;20578;-57
2023/05/10 00:32:40;;;;;;;375.27;82.10;;;;;;;;;;4988131;28;20119;-56
2023/05/10 00:35:06;;;;;;;364.17;81.88;;;;;;;;;;4982260;28;20432;-55
2023/05/10 00:37:31;;;;;;;380.55;82.38;;;;;;;;;;4982151;28;20036;-56
2023/05/10 00:39:56;;;;;;;312.43;80.67;;;;;;;;;;4984315;28;20137;-57
2023/05/10 00:42:22;;;;;;;340.47;80.63;;;;;;;;;;4983408;28;20281;-58
2023/05/10 00:44:47;;;;;;;366.08;82.30;;;;;;;;;;4984395;28;20022;-58
2023/05/10 00:47:12;;;;;;;375.05;84.32;;;;;;;;;;4981278;28;20597;-57
2023/05/10 00:49:38;;;;;;;352.02;83.22;;;;;;;;;;4982792;28;20027;-56
2023/05/10 00:52:03;;;;;;;333.20;82.73;;;;;;;;;;4982938;28;20045;-58
2023/05/10 00:54:28;;;;;;;321.48;77.85;;;;;;;;;;4984763;28;20277;-57
2023/05/10 00:56:54;;;;;;;362.60;79.63;;;;;;;;;;4986762;28;20121;-58
2023/05/10 00:59:19;;;;;;;367.77;83.30;;;;;;;;;;4983945;28;20066;-58
2023/05/10 01:01:45;;;;;;;371.95;84.10;;;;;;;;;;4983758;28;20038;-55
2023/05/10 01:04:12;;;;;;;328.00;76.40;;;;;;;;;;4988300;28;20129;-57
2023/05/10 01:06:38;;;;;;;351.20;81.90;;;;;;;;;;4985144;28;20042;-56
2023/05/10 01:09:03;;;;;;;336.60;81.97;;;;;;;;;;4986044;28;20072;-58
2023/05/10 01:11:28;;;;;;;373.90;80.50;;;;;;;;;;4987412;28;20038;-58
2023/05/10 01:13:57;;;;;;;402.30;81.47;;;;;;;;;;4988830;28;20338;-57
2023/05/10 01:16:23;;;;;;;345.48;83.45;;;;;;;;;;4985771;28;20039;-58
2023/05/10 01:18:48;;;;;;;357.52;77.65;;;;;;;;;;4987531;28;20029;-57
2023/05/10 01:21:16;;;;;;;306.42;56.22;;;;;;;;;;4985503;28;20129;-58
2023/05/10 01:24:00;;;;;;;382.27;60.10;;;;;;;;;;4990180;28;20036;-58
2023/05/10 01:26:42;;;;;;;311.45;62.38;;;;;;;;;;4986529;28;20048;-56
2023/05/10 01:29:13;;;;;;;276.13;64.45;;;;;;;;;;4984244;28;20022;-57
2023/05/10 01:31:57;;;;;;;363.73;68.60;;;;;;;;;;4986080;28;20167;-56
2023/05/10 01:34:27;;;;;;;335.23;69.82;;;;;;;;;;4988307;28;20036;-55
2023/05/10 01:37:02;;;;;;;303.17;55.08;;;;;;;;;;4985486;28;20412;-58
2023/05/10 01:39:44;;;;;;;236.57;39.15;;;;;;;;;;4984960;28;20612;-58
2023/05/10 01:42:11;;;;;;;308.58;50.75;;;;;;;;;;4987822;28;20054;-55
2023/05/10 01:44:45;;;;;;;291.85;48.35;;;;;;;;;;4987700;28;20502;-57
2023/05/10 01:47:12;;;;;;;296.90;48.70;;;;;;;;;;4985249;28;20137;-57
2023/05/10 01:49:46;;;;;;;283.33;51.90;;;;;;;;;;4985023;28;20022;-58
2023/05/10 01:52:12;;;;;;;368.00;56.70;;;;;;;;;;4988065;28;20042;-58
2023/05/10 01:54:42;;;;;;;273.55;55.28;;;;;;;;;;4986840;28;20655;-55
2023/05/10 01:57:09;;;;;;;273.65;55.58;;;;;;;;;;4987955;28;20054;-56
2023/05/10 01:59:36;;;;;;;301.08;57.85;;;;;;;;;;4987429;28;20026;-55
2023/05/10 02:02:02;;;;;;;273.88;57.58;;;;;;;;;;4984031;28;20104;-57
2023/05/10 02:04:28;;;;;;;248.57;57.15;;;;;;;;;;4987312;28;20060;-57
2023/05/10 02:06:53;;;;;;;336.10;61.13;;;;;;;;;;4983886;28;20052;-57
2023/05/10 02:09:20;;;;;;;303.20;61.17;;;;;;;;;;4993151;28;20044;-57
2023/05/10 02:11:47;;;;;;;310.67;49.45;;;;;;;;;;4989837;28;20083;-55
2023/05/10 02:14:13;;;;;;;218.27;12.70;;;;;;;;;;4985951;28;20041;-58
2023/05/10 02:16:39;;;;;;;242.68;30.27;;;;;;;;;;4990318;28;20040;-55
2023/05/10 02:19:05;;;;;;;236.15;30.50;;;;;;;;;;4985302;28;20026;-57
2023/05/10 02:21:31;;;;;;;237.18;27.42;;;;;;;;;;4984926;28;20036;-57
2023/05/10 02:23:56;;;;;;;298.42;38.10;;;;;;;;;;4984964;28;20023;-57
2023/05/10 02:26:23;;;;;;;245.48;34.70;;;;;;;;;;4985170;28;20909;-58
2023/05/10 02:28:49;;;;;;;256.85;36.58;;;;;;;;;;4985818;28;20063;-57
2023/05/10 02:31:14;;;;;;;291.17;38.92;;;;;;;;;;4986659;28;20034;-56
2023/05/10 02:33:40;;;;;;;336.70;39.38;;;;;;;;;;4984497;28;20023;-57
2023/05/10 02:36:07;;;;;;;207.77;34.00;;;;;;;;;;4985876;28;20034;-57
2023/05/10 02:38:33;;;;;;;232.52;33.92;;;;;;;;;;4984006;28;20026;-56
2023/05/10 02:40:59;;;;;;;263.88;37.95;;;;;;;;;;4982859;28;20037;-57
2023/05/10 02:43:24;;;;;;;255.45;28.98;;;;;;;;;;4986492;28;20053;-56
2023/05/10 02:45:49;;;;;;;220.75;21.95;;;;;;;;;;4986506;28;20045;-56
2023/05/10 02:48:15;;;;;;;282.53;25.13;;;;;;;;;;4984434;28;20058;-56
2023/05/10 02:50:42;;;;;;;259.75;25.13;;;;;;;;;;4985094;28;20773;-56
2023/05/10 02:53:10;;;;;;;205.80;15.27;;;;;;;;;;4989368;28;20065;-57
2023/05/10 02:55:37;;;;;;;245.35;14.70;;;;;;;;;;4985450;28;20037;-57
2023/05/10 02:58:03;;;;;;;210.40;15.77;;;;;;;;;;4985446;28;20029;-57
2023/05/10 03:00:28;;;;;;;219.52;17.83;;;;;;;;;;4985437;28;20045;-55
2023/05/10 03:02:54;;;;;;;280.65;18.38;;;;;;;;;;4987383;28;20767;-57
2023/05/10 03:05:20;;;;;;;201.68;17.15;;;;;;;;;;4985549;28;20022;-57
2023/05/10 03:07:46;;;;;;;233.63;17.55;;;;;;;;;;4986542;28;20040;-57
2023/05/10 03:10:11;;;;;;;232.27;25.40;;;;;;;;;;4984161;28;20022;-55
2023/05/10 03:12:55;;;;;;;239.65;25.20;;;;;;;;;;4988179;28;20064;-55
2023/05/10 03:15:33;;;;;;;233.23;28.98;;;;;;;;;;4983688;28;20054;-56
2023/05/10 03:18:06;;;;;;;228.18;26.10;;;;;;;;;;4985081;28;20064;-55
2023/05/10 03:20:48;;;;;;;224.90;28.38;;;;;;;;;;4984242;28;20080;-55
2023/05/10 03:23:27;;;;;;;320.10;29.92;;;;;;;;;;4983702;28;20033;-57
2023/05/10 03:25:52;;;;;;;246.20;31.60;;;;;;;;;;4983598;28;20041;-55
2023/05/10 03:28:17;;;;;;;270.63;33.05;;;;;;;;;;4983472;28;20612;-55
2023/05/10 03:30:43;;;;;;;241.88;32.25;;;;;;;;;;4984866;28;20039;-56
2023/05/10 03:33:08;;;;;;;217.68;32.38;;;;;;;;;;4984120;28;20815;-56
2023/05/10 03:35:34;;;;;;;265.15;36.95;;;;;;;;;;4983594;28;20034;-56
2023/05/10 03:37:59;;;;;;;219.63;32.63;;;;;;;;;;4986765;28;20045;-55
2023/05/10 03:40:25;;;;;;;201.40;28.13;;;;;;;;;;4983124;28;20045;-55
2023/05/10 03:42:50;;;;;;;227.57;32.83;;;;;;;;;;4983874;28;20117;-56
2023/05/10 03:45:16;;;;;;;258.40;32.33;;;;;;;;;;4983253;28;20033;-58
2023/05/10 03:47:41;;;;;;;273.45;34.05;;;;;;;;;;4986517;28;20345;-54
2023/05/10 03:50:07;;;;;;;272.70;37.83;;;;;;;;;;4983826;28;20085;-57
2023/05/10 03:52:32;;;;;;;253.35;37.25;;;;;;;;;;4984022;28;20358;-58
2023/05/10 03:54:57;;;;;;;266.77;36.20;;;;;;;;;;4982800;28;20018;-56
2023/05/10 03:57:22;;;;;;;287.40;36.63;;;;;;;;;;4987696;28;20304;-55
2023/05/10 03:59:47;;;;;;;253.87;35.77;;;;;;;;;;4983699;28;20291;-55
2023/05/10 04:02:13;;;;;;;298.00;34.53;;;;;;;;;;4983570;28;20265;-57
2023/05/10 04:04:38;;;;;;;230.13;36.53;;;;;;;;;;4981956;28;20266;-55
2023/05/10 04:07:03;;;;;;;218.00;35.90;;;;;;;;;;4983586;28;21009;-56
2023/05/10 04:09:29;;;;;;;258.50;37.53;;;;;;;;;;4984153;28;20300;-57
2023/05/10 04:11:54;;;;;;;230.67;32.53;;;;;;;;;;4983017;28;20145;-58
2023/05/10 04:14:19;;;;;;;231.27;32.47;;;;;;;;;;4982290;28;20296;-57
2023/05/10 04:16:44;;;;;;;241.50;31.90;;;;;;;;;;4973224;28;20353;-56
2023/05/10 04:19:10;;;;;;;221.43;32.22;;;;;;;;;;4982147;28;20258;-55
2023/05/10 04:21:35;;;;;;;272.08;33.95;;;;;;;;;;4983470;28;20065;-55
2023/05/10 04:24:01;;;;;;;235.80;32.67;;;;;;;;;;4982816;28;20030;-59
2023/05/10 04:26:26;;;;;;;224.90;32.67;;;;;;;;;;4983010;28;20037;-56
2023/05/10 04:28:51;;;;;;;230.38;32.47;;;;;;;;;;4982757;28;20261;-55
2023/05/10 04:31:17;;;;;;;249.07;34.65;;;;;;;;;;4982396;28;20038;-55
2023/05/10 04:33:42;;;;;;;348.80;36.90;;;;;;;;;;4981142;28;20041;-57
2023/05/10 04:36:07;;;;;;;250.93;36.05;;;;;;;;;;4982018;28;20037;-56
2023/05/10 04:38:32;;;;;;;254.05;35.20;;;;;;;;;;4983176;28;20037;-56
2023/05/10 04:41:06;;;;;;;266.10;37.50;;;;;;;;;;4982914;28;20044;-55
2023/05/10 04:43:31;;;;;;;226.07;37.05;;;;;;;;;;4982825;28;21100;-56
2023/05/10 04:45:56;;;;;;;259.03;38.33;;;;;;;;;;4982671;28;20042;-57
2023/05/10 04:48:22;;;;;;;269.83;39.17;;;;;;;;;;4984107;28;20694;-57
2023/05/10 04:50:47;;;;;;;242.97;41.10;;;;;;;;;;4983749;28;20035;-56
2023/05/10 04:53:12;;;;;;;275.25;42.25;;;;;;;;;;4984443;28;20280;-55
2023/05/10 04:55:38;;;;;;;262.27;41.92;;;;;;;;;;4982180;28;20062;-57
2023/05/10 04:58:03;;;;;;;245.98;39.90;;;;;;;;;;4983224;28;20033;-57
2023/05/10 05:00:28;;;;;;;281.33;40.42;;;;;;;;;;4983559;28;20459;-56
2023/05/10 05:02:53;;;;;;;244.90;40.00;;;;;;;;;;4983358;28;20739;-57
2023/05/10 05:05:19;;;;;;;277.03;41.23;;;;;;;;;;4982713;28;20117;-58
2023/05/10 05:07:44;;;;;;;257.27;40.00;;;;;;;;;;4983219;28;20379;-55
2023/05/10 05:10:09;;;;;;;279.30;40.23;;;;;;;;;;4982084;28;20101;-57
2023/05/10 05:12:34;;;;;;;308.13;43.00;;;;;;;;;;4984489;28;20252;-55
2023/05/10 05:15:00;;;;;;;259.70;42.10;;;;;;;;;;4983140;28;20375;-56
2023/05/10 05:17:25;;;;;;;260.45;42.42;;;;;;;;;;4983382;28;20053;-56
2023/05/10 05:19:50;;;;;;;263.03;35.60;;;;;;;;;;4982570;28;20542;-56
2023/05/10 05:22:16;;;;;;;269.33;36.75;;;;;;;;;;4983590;28;20261;-57
2023/05/10 05:24:41;;;;;;;281.75;37.17;;;;;;;;;;4981550;28;20704;-57
2023/05/10 05:27:06;;;;;;;225.38;35.70;;;;;;;;;;4983037;28;20033;-57
2023/05/10 05:29:32;;;;;;;227.88;34.88;;;;;;;;;;4985369;28;20053;-56
2023/05/10 05:31:57;;;;;;;273.48;35.95;;;;;;;;;;4981534;28;20353;-55
2023/05/10 05:34:22;;;;;;;225.37;35.27;;;;;;;;;;4979293;28;20765;-56
2023/05/10 05:36:48;;;;;;;251.23;35.85;;;;;;;;;;4983639;28;20864;-57
2023/05/10 05:39:13;;;;;;;291.80;36.83;;;;;;;;;;4983939;28;20404;-57
2023/05/10 05:41:38;;;;;;;231.50;35.80;;;;;;;;;;4981512;28;20070;-58
2023/05/10 05:44:03;;;;;;;269.40;36.17;;;;;;;;;;4981921;28;20068;-57
2023/05/10 05:46:29;;;;;;;264.30;34.67;;;;;;;;;;4981567;28;20046;-56
2023/05/10 05:48:54;;;;;;;222.73;33.43;;;;;;;;;;4980757;28;20293;-56
2023/05/10 05:51:20;;;;;;;258.13;35.50;;;;;;;;;;4981857;28;20357;-58
2023/05/10 05:53:45;;;;;;;340.05;37.30;;;;;;;;;;4985559;28;20042;-57
2023/05/10 05:56:10;;;;;;;243.13;34.07;;;;;;;;;;4984720;28;20035;-58
2023/05/10 05:58:35;;;;;;;271.25;36.15;;;;;;;;;;4985410;28;20705;-58
2023/05/10 06:01:01;;;;;;;230.97;33.30;;;;;;;;;;4984966;28;20034;-56
2023/05/10 06:03:26;;;;;;;233.88;34.75;;;;;;;;;;4984520;28;20045;-58
2023/05/10 06:05:51;;;;;;;242.07;35.87;;;;;;;;;;4984458;28;20707;-59
2023/05/10 06:08:16;;;;;;;243.60;36.07;;;;;;;;;;4985046;28;20738;-58
2023/05/10 06:10:41;;;;;;;280.80;36.80;;;;;;;;;;4985372;28;20826;-57
2023/05/10 06:13:07;;;;;;;260.90;37.10;;;;;;;;;;4986174;28;20895;-58
2023/05/10 06:15:32;;;;;;;224.75;35.00;;;;;;;;;;4983829;28;20677;-57
2023/05/10 06:17:57;;;;;;;275.65;37.45;;;;;;;;;;4985319;28;20132;-58
2023/05/10 06:20:23;;;;;;;226.57;35.38;;;;;;;;;;4984777;28;20043;-56
2023/05/10 06:22:48;;;;;;;243.23;34.30;;;;;;;;;;4986103;28;20362;-59
2023/05/10 06:25:14;;;;;;;271.17;32.17;;;;;;;;;;4983864;28;20454;-58
2023/05/10 06:27:39;;;;;;;291.05;31.88;;;;;;;;;;4985294;28;20025;-59
2023/05/10 06:30:05;;;;;;;248.73;29.30;;;;;;;;;;4984128;28;20060;-57
2023/05/10 06:32:30;;;;;;;171.50;29.00;;;;;;;;;;4984117;28;20743;-57
2023/05/10 06:34:55;;;;;;;237.10;31.53;;;;;;;;;;4985655;28;20655;-57
2023/05/10 06:37:21;;;;;;;292.43;31.80;;;;;;;;;;4984026;28;20787;-56
2023/05/10 06:39:46;;;;;;;215.65;28.77;;;;;;;;;;4986547;28;20921;-58
2023/05/10 06:42:11;;;;;;;218.73;29.10;;;;;;;;;;4985461;28;20117;-56
2023/05/10 06:44:36;;;;;;;276.58;34.03;;;;;;;;;;4984911;28;20027;-55
2023/05/10 06:47:02;;;;;;;214.43;34.07;;;;;;;;;;4984508;28;20091;-56
2023/05/10 06:49:27;;;;;;;232.87;35.50;;;;;;;;;;4985326;28;20272;-57
2023/05/10 06:51:52;;;;;;;201.15;33.78;;;;;;;;;;4982678;28;20274;-57
2023/05/10 06:54:17;;;;;;;238.00;34.35;;;;;;;;;;4983237;28;20030;-57
2023/05/10 06:56:43;;;;;;;250.95;35.45;;;;;;;;;;4969990;28;20026;-57
2023/05/10 06:59:08;;;;;;;249.85;39.15;;;;;;;;;;4985481;28;20035;-59
2023/05/10 07:01:33;;;;;;;272.73;38.63;;;;;;;;;;4967087;28;20037;-58
2023/05/10 07:03:59;;;;;;;280.42;37.35;;;;;;;;;;4985296;28;20940;-58
2023/05/10 07:06:24;;;;;;;259.05;55.00;;;;;;;;;;4982912;28;20082;-58
2023/05/10 07:08:49;;;;;;;224.20;47.80;;;;;;;;;;4985824;28;20128;-56
2023/05/10 07:11:14;;;;;;;270.93;54.40;;;;;;;;;;4984616;28;20043;-57
2023/05/10 07:13:43;;;;;;;300.90;39.03;;;;;;;;;;4984390;28;20835;-58
2023/05/10 07:16:09;;;;;;;321.38;39.97;;;;;;;;;;4984582;28;20284;-57
2023/05/10 07:18:34;;;;;;;238.35;35.78;;;;;;;;;;4985024;28;20025;-59
2023/05/10 07:20:59;;;;;;;212.90;33.67;;;;;;;;;;4984393;28;20072;-57
2023/05/10 07:23:24;;;;;;;258.37;33.90;;;;;;;;;;4986657;28;20030;-56
2023/05/10 07:25:51;;;;;;;203.35;30.30;;;;;;;;;;4983560;28;20050;-57
2023/05/10 07:28:17;;;;;;;237.65;29.73;;;;;;;;;;4983722;28;20026;-57
2023/05/10 07:30:43;;;;;;;236.82;27.55;;;;;;;;;;4983482;28;20091;-59
2023/05/10 07:33:09;;;;;;;222.88;22.25;;;;;;;;;;4986183;28;20026;-59
2023/05/10 07:35:35;;;;;;;251.90;22.35;;;;;;;;;;4983680;28;20037;-57
2023/05/10 07:38:00;;;;;;;207.10;22.15;;;;;;;;;;4984114;28;20095;-59
2023/05/10 07:40:26;;;;;;;211.95;26.42;;;;;;;;;;4984148;28;20045;-57
2023/05/10 07:42:51;;;;;;;250.15;28.98;;;;;;;;;;4985043;28;20022;-56
2023/05/10 07:45:17;;;;;;;205.23;25.65;;;;;;;;;;4984665;28;20030;-57
2023/05/10 07:47:42;;;;;;;224.77;27.52;;;;;;;;;;4982602;28;20009;-58
2023/05/10 07:50:08;;;;;;;241.00;31.33;;;;;;;;;;4984583;28;20735;-59
2023/05/10 07:52:33;;;;;;;212.82;30.42;;;;;;;;;;4986529;28;20315;-59
2023/05/10 07:54:58;;;;;;;249.93;28.95;;;;;;;;;;4983727;28;20019;-58
2023/05/10 07:57:24;;;;;;;248.17;31.43;;;;;;;;;;4984934;28;20061;-57
2023/05/10 07:59:49;;;;;;;255.20;30.60;;;;;;;;;;4985548;28;20145;-59
2023/05/10 08:02:14;;;;;;;293.77;31.43;;;;;;;;;;4984225;28;20995;-59
2023/05/10 08:04:39;;;;;;;250.17;32.03;;;;;;;;;;4984013;28;20348;-57
2023/05/10 08:07:05;;;;;;;207.80;31.63;;;;;;;;;;4983731;28;20046;-58
2023/05/10 08:09:30;;;;;;;218.93;32.17;;;;;;;;;;4986035;28;20344;-57
2023/05/10 08:11:55;;;;;;;204.63;34.67;;;;;;;;;;4981147;28;20297;-56
2023/05/10 08:14:20;;;;;;;270.80;35.40;;;;;;;;;;4983810;28;20365;-58
2023/05/10 08:16:46;;;;;;;243.60;36.53;;;;;;;;;;4983914;28;20821;-56
2023/05/10 08:19:11;;;;;;;258.55;37.50;;;;;;;;;;4983697;28;20598;-57
2023/05/10 08:21:37;;;;;;;271.80;38.78;;;;;;;;;;4983783;28;20038;-56
2023/05/10 08:24:02;;;;;;;285.63;39.53;;;;;;;;;;4983027;28;20583;-57
2023/05/10 08:26:27;;;;;;;230.48;37.95;;;;;;;;;;4984027;28;20053;-56
2023/05/10 08:28:53;;;;;;;248.15;38.55;;;;;;;;;;4983206;28;20484;-57
2023/05/10 08:31:18;;;;;;;240.63;40.37;;;;;;;;;;4983442;28;20034;-56
2023/05/10 08:33:43;;;;;;;341.33;42.22;;;;;;;;;;4982402;28;20794;-56
2023/05/10 08:36:09;;;;;;;281.50;40.28;;;;;;;;;;4983828;28;20037;-55
2023/05/10 08:38:34;;;;;;;261.20;39.85;;;;;;;;;;4982529;28;20113;-56
2023/05/10 08:41:01;;;;;;;306.20;40.67;;;;;;;;;;4983386;28;20119;-55
2023/05/10 08:43:31;;;;;;;243.40;39.42;;;;;;;;;;4983021;28;20120;-56
2023/05/10 08:45:56;;;;;;;157.52;38.88;;;;;;;;;;4982016;28;20052;-58
2023/05/10 08:48:23;;;;;;;229.52;39.60;;;;;;;;;;4981368;28;20022;-58
2023/05/10 08:50:48;;;;;;;201.52;39.42;;;;;;;;;;4981408;28;20039;-56
2023/05/10 08:53:14;;;;;;;271.38;40.42;;;;;;;;;;4982631;28;20035;-56
2023/05/10 08:55:41;;;;;;;243.70;39.45;;;;;;;;;;4982245;28;20513;-58
2023/05/10 08:58:07;;;;;;;267.48;41.47;;;;;;;;;;4984713;28;20051;-57
2023/05/10 09:00:33;;;;;;;281.50;39.42;;;;;;;;;;4982230;28;20124;-57
2023/05/10 09:02:59;;;;;;;243.02;39.13;;;;;;;;;;4984949;28;20028;-56
2023/05/10 09:05:24;;;;;;;260.38;37.15;;;;;;;;;;4981097;28;20018;-58
2023/05/10 09:07:49;;;;;;;211.18;34.08;;;;;;;;;;4982450;28;20045;-57
2023/05/10 09:10:15;;;;;;;238.97;29.67;;;;;;;;;;4983309;28;20092;-58
2023/05/10 09:12:40;;;;;;;310.92;30.20;;;;;;;;;;4982682;28;20010;-56
2023/05/10 09:15:06;;;;;;;200.60;19.40;;;;;;;;;;4982540;28;20057;-57
2023/05/10 09:17:32;;;;;;;235.85;19.35;;;;;;;;;;4979254;28;20091;-57
2023/05/10 09:19:58;;;;;;;230.10;16.20;;;;;;;;;;4981097;28;20026;-57
2023/05/10 09:22:24;;;;;;;204.15;13.10;;;;;;;;;;4983680;28;20274;-56
2023/05/10 09:25:03;;;;;;;261.52;18.73;;;;;;;;;;4980603;28;20029;-58
2023/05/10 09:27:28;;;;;;;212.88;14.63;;;;;;;;;;4985439;28;20047;-56
2023/05/10 09:29:54;;;;;;;217.80;15.07;;;;;;;;;;4985520;28;20030;-58
2023/05/10 09:32:20;;;;;;;217.05;13.75;;;;;;;;;;4985643;28;20266;-57
2023/05/10 09:34:45;;;;;;;214.43;13.37;;;;;;;;;;4985410;28;20022;-57
2023/05/10 09:37:11;;;;;;;211.98;11.10;;;;;;;;;;4985775;28;20265;-58
2023/05/10 09:39:37;;;;;;;216.15;14.75;;;;;;;;;;4986337;28;20529;-58
2023/05/10 09:42:04;;;;;;;231.00;18.77;;;;;;;;;;4986290;28;20039;-56
2023/05/10 09:44:29;;;;;;;210.38;18.73;;;;;;;;;;4983879;28;20072;-57
2023/05/10 09:46:54;;;;;;;201.80;23.10;;;;;;;;;;4984710;28;20049;-56
2023/05/10 09:49:21;;;;;;;235.35;26.60;;;;;;;;;;4986996;28;20280;-56
2023/05/10 09:51:46;;;;;;;205.38;24.85;;;;;;;;;;4985797;28;20723;-56
2023/05/10 09:54:15;;;;;;;202.17;26.57;;;;;;;;;;4984697;28;20048;-56
2023/05/10 09:56:41;;;;;;;264.63;31.42;;;;;;;;;;4984835;28;20290;-55
2023/05/10 09:59:07;;;;;;;243.98;31.90;;;;;;;;;;4986036;28;20050;-57
2023/05/10 10:01:32;;;;;;;224.80;28.13;;;;;;;;;;4983471;28;20030;-56
2023/05/10 10:03:58;;;;;;;277.08;29.17;;;;;;;;;;4985387;28;20026;-56
2023/05/10 10:06:24;;;;;;;232.97;26.13;;;;;;;;;;4986315;28;20504;-56
2023/05/10 10:08:49;;;;;;;229.05;22.92;;;;;;;;;;4986083;28;20867;-57
2023/05/10 10:11:15;;;;;;;238.55;24.05;;;;;;;;;;4986227;28;20037;-59
2023/05/10 10:13:40;;;;;;;300.42;27.02;;;;;;;;;;4985033;28;20432;-59
2023/05/10 10:16:06;;;;;;;255.18;24.15;;;;;;;;;;4982801;28;20034;-58
2023/05/10 10:18:31;;;;;;;249.25;25.98;;;;;;;;;;4985451;28;20058;-57
2023/05/10 10:20:57;;;;;;;199.20;25.00;;;;;;;;;;4985026;28;20034;-56
2023/05/10 10:23:23;;;;;;;235.15;28.70;;;;;;;;;;4974985;28;20481;-57
2023/05/10 10:25:48;;;;;;;256.35;27.67;;;;;;;;;;4983114;28;20862;-57
2023/05/10 10:28:24;;;;;;;237.65;28.60;;;;;;;;;;4984415;28;20525;-58
2023/05/10 10:30:50;;;;;;;195.45;28.38;;;;;;;;;;4984983;28;20087;-57
2023/05/10 10:33:21;;;;;;;308.70;32.00;;;;;;;;;;4985644;28;20030;-58
2023/05/10 10:35:47;;;;;;;245.82;30.88;;;;;;;;;;4983407;28;20046;-56
2023/05/10 10:38:12;;;;;;;223.20;30.48;;;;;;;;;;4982824;28;20107;-56
2023/05/10 10:40:38;;;;;;;213.23;30.08;;;;;;;;;;4984757;28;20040;-57
2023/05/10 10:43:22;;;;;;;222.95;31.20;;;;;;;;;;4985805;28;20023;-56
2023/05/10 10:46:06;;;;;;;214.70;30.60;;;;;;;;;;4982916;28;20072;-55
2023/05/10 10:48:32;;;;;;;252.60;35.10;;;;;;;;;;4984890;28;20130;-56
2023/05/10 10:50:57;;;;;;;204.03;31.30;;;;;;;;;;4984306;28;20037;-57
2023/05/10 10:53:25;;;;;;;194.02;28.50;;;;;;;;;;4984094;28;20030;-58
2023/05/10 10:56:01;;;;;;;263.77;25.88;;;;;;;;;;4983512;28;20443;-57
2023/05/10 10:58:31;;;;;;;195.93;22.98;;;;;;;;;;4983646;28;20068;-57
2023/05/10 11:01:13;;;;;;;229.52;20.27;;;;;;;;;;4983745;28;20073;-56
2023/05/10 11:03:38;;;;;;;255.60;19.67;;;;;;;;;;4984676;28;20493;-56
2023/05/10 11:06:03;;;;;;;243.30;21.75;;;;;;;;;;4982907;28;20132;-57
2023/05/10 11:08:29;;;;;;;207.70;20.20;;;;;;;;;;4955969;28;20030;-57
2023/05/10 11:11:03;;;;;;;186.80;19.27;;;;;;;;;;4984567;28;20038;-57
2023/05/10 11:13:29;;;;;;;196.45;20.75;;;;;;;;;;4984925;28;20687;-56
2023/05/10 11:15:56;;;;;;;199.48;20.33;;;;;;;;;;4982932;28;20502;-57
2023/05/10 11:18:31;;;;;;;243.60;20.88;;;;;;;;;;4983709;28;20082;-59
2023/05/10 11:20:56;;;;;;;192.90;23.15;;;;;;;;;;4984244;28;20030;-58
2023/05/10 11:23:21;;;;;;;228.23;24.37;;;;;;;;;;4985652;28;20697;-56
2023/05/10 11:25:48;;;;;;;241.75;26.25;;;;;;;;;;4983887;28;20046;-59
2023/05/10 11:28:13;;;;;;;272.13;27.42;;;;;;;;;;4984577;28;20022;-59
2023/05/10 11:30:39;;;;;;;251.35;28.42;;;;;;;;;;4982308;28;20478;-57
2023/05/10 11:33:05;;;;;;;258.08;32.05;;;;;;;;;;4984799;28;20622;-59
2023/05/10 11:35:30;;;;;;;256.90;30.88;;;;;;;;;;4982895;28;20671;-56
2023/05/10 11:37:55;;;;;;;261.50;31.93;;;;;;;;;;4983253;28;20057;-58
2023/05/10 11:40:24;;;;;;;262.60;32.87;;;;;;;;;;4983099;28;20276;-58
2023/05/10 11:42:49;;;;;;;225.75;30.73;;;;;;;;;;4983669;28;20274;-59
2023/05/10 11:45:15;;;;;;;255.38;33.90;;;;;;;;;;4982278;28;20029;-57
2023/05/10 11:47:43;;;;;;;231.82;34.42;;;;;;;;;;4981128;28;20034;-58
2023/05/10 11:50:08;;;;;;;251.55;35.38;;;;;;;;;;4985167;28;20414;-56
2023/05/10 11:52:39;;;;;;;211.23;34.97;;;;;;;;;;4985199;28;20479;-56
2023/05/10 11:55:05;;;;;;;226.80;34.63;;;;;;;;;;4984547;28;20109;-57
2023/05/10 11:57:31;;;;;;;321.67;36.80;;;;;;;;;;4982960;28;20030;-57
2023/05/10 11:59:56;;;;;;;207.32;34.55;;;;;;;;;;4984434;28;20023;-57
2023/05/10 12:02:21;;;;;;;228.02;36.22;;;;;;;;;;4984129;28;20296;-57
2023/05/10 12:04:47;;;;;;;249.05;35.55;;;;;;;;;;4982942;28;20038;-57
2023/05/10 12:07:12;;;;;;;255.10;34.90;;;;;;;;;;4985044;28;20050;-57
2023/05/10 12:09:42;;;;;;;249.87;33.87;;;;;;;;;;4982686;28;20106;-58
2023/05/10 12:12:07;;;;;;;247.32;33.45;;;;;;;;;;4982231;28;20293;-58
2023/05/10 12:14:34;;;;;;;243.20;34.57;;;;;;;;;;4981278;28;20030;-58
2023/05/10 12:17:00;;;;;;;252.48;31.40;;;;;;;;;;4981826;28;20943;-56
2023/05/10 12:19:25;;;;;;;223.75;28.88;;;;;;;;;;4984700;28;20033;-56
2023/05/10 12:21:50;;;;;;;226.47;29.50;;;;;;;;;;4983332;28;20034;-59
2023/05/10 12:24:17;;;;;;;246.73;27.77;;;;;;;;;;4982370;28;20337;-59
2023/05/10 12:26:43;;;;;;;220.80;24.70;;;;;;;;;;4982218;28;20175;-58
2023/05/10 12:29:15;;;;;;;265.85;27.23;;;;;;;;;;4981678;28;20022;-57
2023/05/10 12:31:54;;;;;;;242.15;25.25;;;;;;;;;;4982177;28;20044;-58
2023/05/10 12:34:26;;;;;;;253.73;45.53;;;;;;;;;;4981131;28;20058;-57
2023/05/10 12:36:52;;;;;;;177.18;26.30;;;;;;;;;;4983584;28;20041;-58
2023/05/10 12:39:17;;;;;;;246.02;27.02;;;;;;;;;;4981818;28;20030;-57
2023/05/10 12:41:43;;;;;;;222.90;18.80;;;;;;;;;;4982379;28;20064;-56
2023/05/10 12:44:08;;;;;;;183.63;16.70;;;;;;;;;;4981895;28;20258;-57
2023/05/10 12:46:33;;;;;;;240.93;14.80;;;;;;;;;;4983257;28;20289;-58
2023/05/10 12:48:58;;;;;;;227.87;12.83;;;;;;;;;;4982789;28;20249;-59
2023/05/10 12:51:23;;;;;;;165.30;13.70;;;;;;;;;;4983419;28;21138;-56
2023/05/10 12:53:49;;;;;;;288.43;17.80;;;;;;;;;;4982353;28;20482;-56
2023/05/10 12:56:14;;;;;;;247.60;15.07;;;;;;;;;;4983907;28;20480;-59
2023/05/10 12:58:40;;;;;;;233.50;16.00;;;;;;;;;;4984806;28;20664;-58
2023/05/10 13:01:05;;;;;;;228.68;15.52;;;;;;;;;;4984499;28;20049;-57
2023/05/10 13:03:30;;;;;;;213.20;13.97;;;;;;;;;;4985640;28;20047;-57
2023/05/10 13:05:56;;;;;;;232.77;13.63;;;;;;;;;;4986534;28;20281;-57
2023/05/10 13:08:21;;;;;;;201.25;13.65;;;;;;;;;;4987295;28;20033;-56
2023/05/10 13:10:46;;;;;;;177.73;13.03;;;;;;;;;;4985427;28;20041;-57
2023/05/10 13:13:11;;;;;;;260.47;13.63;;;;;;;;;;4988527;28;20260;-56
2023/05/10 13:15:37;;;;;;;261.48;13.32;;;;;;;;;;4987375;28;20914;-55
2023/05/10 13:18:02;;;;;;;172.60;11.65;;;;;;;;;;4984028;28;20035;-58
2023/05/10 13:20:27;;;;;;;199.10;12.30;;;;;;;;;;4984957;28;20122;-58
2023/05/10 13:22:53;;;;;;;234.27;14.90;;;;;;;;;;4987009;28;20825;-58
2023/05/10 13:25:18;;;;;;;227.45;13.77;;;;;;;;;;4985323;28;20018;-57
2023/05/10 13:27:43;;;;;;;216.63;13.67;;;;;;;;;;4986222;28;20632;-58
2023/05/10 13:30:09;;;;;;;196.90;12.43;;;;;;;;;;4985868;28;20245;-57
2023/05/10 13:32:34;;;;;;;230.35;15.35;;;;;;;;;;4977983;28;20027;-57
2023/05/10 13:35:00;;;;;;;220.65;13.82;;;;;;;;;;4984336;28;20050;-55
2023/05/10 13:37:25;;;;;;;265.35;15.82;;;;;;;;;;4985659;28;20030;-58
2023/05/10 13:39:51;;;;;;;185.17;15.03;;;;;;;;;;4986492;28;20057;-55
2023/05/10 13:42:16;;;;;;;266.05;17.98;;;;;;;;;;4986338;28;20674;-56
2023/05/10 13:44:42;;;;;;;217.07;15.68;;;;;;;;;;4983362;28;20010;-56
2023/05/10 13:47:07;;;;;;;213.75;22.13;;;;;;;;;;4986212;28;20133;-56
2023/05/10 13:49:33;;;;;;;263.87;19.13;;;;;;;;;;4983362;28;20126;-57
2023/05/10 13:51:59;;;;;;;158.82;17.27;;;;;;;;;;4986167;28;20276;-57
2023/05/10 13:54:25;;;;;;;267.42;20.17;;;;;;;;;;4985158;28;20154;-57
2023/05/10 13:56:50;;;;;;;213.30;17.95;;;;;;;;;;4985255;28;20034;-56
2023/05/10 13:59:15;;;;;;;211.10;18.07;;;;;;;;;;4985460;28;20053;-58